createdAt,value
2023-04-18T00:01:15.143Z,102741.86
2023-04-18T00:03:46.001Z,102744.30
2023-04-18T00:06:14.405Z,102740.13
2023-04-18T00:08:42.371Z,102740.67
2023-04-18T00:11:10.641Z,102740.90
2023-04-18T00:13:39.548Z,102740.91
2023-04-18T00:16:08.739Z,102741.29
2023-04-18T00:18:37.184Z,102744.60
2023-04-18T00:21:06.064Z,102744.09
2023-04-18T00:23:34.477Z,102743.75
2023-04-18T00:26:02.674Z,102741.48
2023-04-18T00:28:30.603Z,102746.77
2023-04-18T00:30:58.706Z,102744.19
2023-04-18T00:33:26.766Z,102741.08
2023-04-18T00:35:54.759Z,102741.32
2023-04-18T00:38:22.714Z,102737.77
2023-04-18T00:40:50.687Z,102738.15
2023-04-18T00:43:18.739Z,102741.02
2023-04-18T00:45:46.838Z,102741.27
2023-04-18T00:48:14.960Z,102735.19
2023-04-18T00:50:43.143Z,102742.96
2023-04-18T00:53:11.224Z,102740.82
2023-04-18T00:55:39.931Z,102742.84
2023-04-18T00:58:08.313Z,102741.52
2023-04-18T01:00:36.984Z,102739.45
2023-04-18T01:03:05.183Z,102742.23
2023-04-18T01:05:33.254Z,102746.45
2023-04-18T01:08:01.509Z,102744.89
2023-04-18T01:10:31.212Z,102745.23
2023-04-18T01:13:13.518Z,102746.27
2023-04-18T01:15:47.391Z,102748.14
2023-04-18T01:18:17.128Z,102743.33
2023-04-18T01:20:47.633Z,102737.16
2023-04-18T01:23:17.269Z,102742.02
2023-04-18T01:25:46.796Z,102742.27
2023-04-18T01:28:15.357Z,102740.05
2023-04-18T01:30:43.449Z,102747.22
2023-04-18T01:33:11.507Z,102745.91
2023-04-18T01:35:39.515Z,102743.96
2023-04-18T01:38:07.434Z,102743.25
2023-04-18T01:40:35.436Z,102744.68
2023-04-18T01:43:03.406Z,102744.07
2023-04-18T01:45:31.432Z,102742.52
2023-04-18T01:47:59.535Z,102739.38
2023-04-18T01:50:27.680Z,102737.84
2023-04-18T01:52:55.671Z,102735.27
2023-04-18T01:55:23.729Z,102730.34
2023-04-18T01:57:51.773Z,102731.35
2023-04-18T02:00:21.219Z,102737.28
2023-04-18T02:02:50.598Z,102734.42
2023-04-18T02:05:18.972Z,102735.42
2023-04-18T02:07:47.810Z,102736.95
2023-04-18T02:10:15.839Z,102732.78
2023-04-18T02:12:44.191Z,102734.02
2023-04-18T02:15:12.311Z,102737.86
2023-04-18T02:17:42.037Z,102738.71
2023-04-18T02:20:11.052Z,102737.06
2023-04-18T02:22:39.705Z,102734.23
2023-04-18T02:25:08.306Z,102733.31
2023-04-18T02:27:36.752Z,102729.41
2023-04-18T02:30:05.810Z,102730.86
2023-04-18T02:32:35.139Z,102729.14
2023-04-18T02:35:03.413Z,102727.08
2023-04-18T02:37:31.463Z,102725.47
2023-04-18T02:39:59.423Z,102722.88
2023-04-18T02:42:31.559Z,102718.77
2023-04-18T02:44:59.557Z,102719.73
2023-04-18T02:47:28.205Z,102719.90
2023-04-18T02:49:56.295Z,102720.54
2023-04-18T02:52:25.590Z,102722.48
2023-04-18T02:54:53.756Z,102721.27
2023-04-18T02:57:26.055Z,102719.29
2023-04-18T03:00:23.327Z,102716.57
2023-04-18T03:03:10.670Z,102717.89
2023-04-18T03:05:43.121Z,102716.16
2023-04-18T03:08:11.798Z,102717.45
2023-04-18T03:10:40.167Z,102718.41
2023-04-18T03:13:08.813Z,102720.91
2023-04-18T03:15:37.705Z,102722.70
2023-04-18T03:18:06.265Z,102727.30
2023-04-18T03:20:37.786Z,102725.55
2023-04-18T03:23:07.937Z,102731.76
2023-04-18T03:25:36.004Z,102734.05
2023-04-18T03:28:04.762Z,102733.71
2023-04-18T03:30:33.434Z,102741.27
2023-04-18T03:33:02.920Z,102739.73
2023-04-18T03:35:31.594Z,102741.66
2023-04-18T03:37:59.793Z,102740.77
2023-04-18T03:40:32.573Z,102740.52
2023-04-18T03:43:05.659Z,102738.91
2023-04-18T03:45:33.684Z,102742.26
2023-04-18T03:48:01.891Z,102741.54
2023-04-18T03:50:30.281Z,102739.91
2023-04-18T03:52:58.533Z,102741.06
2023-04-18T03:55:26.730Z,102746.27
2023-04-18T03:57:55.208Z,102744.75
2023-04-18T04:00:27.798Z,102744.30
2023-04-18T04:03:02.038Z,102742.27
2023-04-18T04:05:30.291Z,102743.42
2023-04-18T04:07:58.457Z,102743.34
2023-04-18T04:10:26.424Z,102747.45
2023-04-18T04:12:54.410Z,102750.41
2023-04-18T04:15:22.574Z,102748.64
2023-04-18T04:17:55.765Z,102751.34
2023-04-18T04:20:25.973Z,102744.80
2023-04-18T04:23:01.421Z,102745.21
2023-04-18T04:25:29.888Z,102747.45
2023-04-18T04:28:01.653Z,102743.59
2023-04-18T04:30:29.937Z,102745.50
2023-04-18T04:32:58.453Z,102744.88
2023-04-18T04:35:26.990Z,102743.05
2023-04-18T04:37:54.989Z,102743.73
2023-04-18T04:40:31.501Z,102747.77
2023-04-18T04:43:26.147Z,102750.71
2023-04-18T04:45:54.327Z,102758.01
2023-04-18T04:48:25.329Z,102761.13
2023-04-18T04:50:56.024Z,102759.85
2023-04-18T04:53:26.434Z,102759.06
2023-04-18T04:55:54.544Z,102764.70
2023-04-18T04:58:23.294Z,102760.99
2023-04-18T05:01:04.645Z,102764.58
2023-04-18T05:03:32.954Z,102762.37
2023-04-18T05:06:01.385Z,102766.79
2023-04-18T05:08:29.498Z,102763.97
2023-04-18T05:10:57.536Z,102766.88
2023-04-18T05:13:25.455Z,102769.21
2023-04-18T05:15:53.466Z,102772.05
2023-04-18T05:18:21.402Z,102771.50
2023-04-18T05:20:49.495Z,102768.16
2023-04-18T05:23:17.423Z,102769.44
2023-04-18T05:25:45.402Z,102765.29
2023-04-18T05:28:13.431Z,102767.59
2023-04-18T05:30:41.788Z,102765.67
2023-04-18T05:33:09.853Z,102769.38
2023-04-18T05:35:37.876Z,102770.65
2023-04-18T05:38:06.197Z,102768.66
2023-04-18T05:40:34.270Z,102769.67
2023-04-18T05:43:02.231Z,102766.83
2023-04-18T05:45:30.309Z,102760.83
2023-04-18T05:47:58.328Z,102758.91
2023-04-18T05:50:26.292Z,102757.17
2023-04-18T05:52:54.263Z,102755.73
2023-04-18T05:55:22.286Z,102754.77
2023-04-18T05:57:50.207Z,102755.56
2023-04-18T06:00:19.219Z,102757.22
2023-04-18T06:02:47.363Z,102761.34
2023-04-18T06:05:15.635Z,102756.83
2023-04-18T06:07:43.909Z,102754.27
2023-04-18T06:10:13.650Z,102752.98
2023-04-18T06:12:42.366Z,102755.30
2023-04-18T06:15:10.975Z,102754.56
2023-04-18T06:17:39.746Z,102748.48
2023-04-18T06:20:08.178Z,102739.22
2023-04-18T06:22:36.179Z,102740.05
2023-04-18T06:25:04.714Z,102741.13
2023-04-18T06:27:32.733Z,102740.59
2023-04-18T06:30:00.696Z,102745.55
2023-04-18T06:32:28.713Z,102745.35
2023-04-18T06:34:56.841Z,102747.52
2023-04-18T06:37:25.027Z,102753.96
2023-04-18T06:39:52.952Z,102750.52
2023-04-18T06:42:22.595Z,102749.02
2023-04-18T06:44:50.963Z,102751.78
2023-04-18T06:47:18.937Z,102757.99
2023-04-18T06:49:46.958Z,102756.98
2023-04-18T06:52:14.881Z,102759.73
2023-04-18T06:54:42.939Z,102761.73
2023-04-18T06:57:11.119Z,102767.89
2023-04-18T06:59:40.922Z,102770.16
2023-04-18T07:02:09.037Z,102773.59
2023-04-18T07:04:37.338Z,102776.25
2023-04-18T07:07:05.440Z,102773.77
2023-04-18T07:09:33.507Z,102783.42
2023-04-18T07:12:01.463Z,102781.60
2023-04-18T07:14:30.143Z,102778.17
2023-04-18T07:17:01.150Z,102781.33
2023-04-18T07:19:29.105Z,102778.83
2023-04-18T07:21:57.237Z,102777.73
2023-04-18T07:24:25.335Z,102779.83
2023-04-18T07:26:55.040Z,102780.02
2023-04-18T07:29:23.407Z,102779.11
2023-04-18T07:31:52.181Z,102785.45
2023-04-18T07:34:22.208Z,102785.27
2023-04-18T07:36:50.264Z,102786.52
2023-04-18T07:39:18.241Z,102783.37
2023-04-18T07:41:46.333Z,102783.75
2023-04-18T07:44:14.620Z,102785.54
2023-04-18T07:46:42.985Z,102781.70
2023-04-18T07:49:11.094Z,102781.58
2023-04-18T07:51:39.310Z,102780.04
2023-04-18T07:54:07.393Z,102782.16
2023-04-18T07:56:35.358Z,102782.35
2023-04-18T07:59:03.377Z,102782.70
2023-04-18T08:01:31.724Z,102787.13
2023-04-18T08:04:02.076Z,102785.02
2023-04-18T08:06:30.905Z,102784.50
2023-04-18T08:08:59.294Z,102782.05
2023-04-18T08:11:27.607Z,102782.41
2023-04-18T08:13:55.739Z,102787.17
2023-04-18T08:16:23.852Z,102788.23
2023-04-18T08:18:52.332Z,102790.86
2023-04-18T08:21:20.556Z,102788.74
2023-04-18T08:23:48.730Z,102793.15
2023-04-18T08:26:16.766Z,102779.94
2023-04-18T08:28:46.565Z,102789.63
2023-04-18T08:31:16.474Z,102784.86
2023-04-18T08:33:44.498Z,102784.88
2023-04-18T08:36:12.567Z,102786.64
2023-04-18T08:38:40.703Z,102782.75
2023-04-18T08:41:08.878Z,102785.02
2023-04-18T08:43:38.356Z,102781.65
2023-04-18T08:46:06.910Z,102777.03
2023-04-18T08:48:35.064Z,102774.00
2023-04-18T08:51:03.226Z,102783.11
2023-04-18T08:53:33.933Z,102774.35
2023-04-18T08:56:03.289Z,102772.30
2023-04-18T08:58:33.968Z,102763.48
2023-04-18T09:01:02.647Z,102765.81
2023-04-18T09:03:39.184Z,102762.60
2023-04-18T09:06:18.805Z,102771.84
2023-04-18T09:09:10.708Z,102768.05
2023-04-18T09:11:38.647Z,102765.70
2023-04-18T09:14:06.663Z,102763.27
2023-04-18T09:16:50.924Z,102767.16
2023-04-18T09:19:19.330Z,102761.02
2023-04-18T09:21:58.418Z,102767.05
2023-04-18T09:24:28.545Z,102768.50
2023-04-18T09:26:58.750Z,102764.98
2023-04-18T09:29:43.557Z,102765.52
2023-04-18T09:32:11.563Z,102761.30
2023-04-18T09:34:42.701Z,102758.70
2023-04-18T09:37:13.681Z,102758.99
2023-04-18T09:39:44.596Z,102758.10
2023-04-18T09:42:12.858Z,102752.77
2023-04-18T09:45:05.752Z,102754.50
2023-04-18T09:47:36.530Z,102753.09
2023-04-18T09:50:07.496Z,102753.00
2023-04-18T09:52:38.011Z,102751.52
2023-04-18T09:55:09.443Z,102749.40
2023-04-18T09:57:41.855Z,102754.51
2023-04-18T10:00:20.491Z,102747.61
2023-04-18T10:02:59.957Z,102750.92
2023-04-18T10:05:33.917Z,102751.46
2023-04-18T10:08:02.614Z,102743.94
2023-04-18T10:10:30.981Z,102744.17
2023-04-18T10:13:01.505Z,102746.33
2023-04-18T10:15:30.898Z,102738.23
2023-04-18T10:18:09.263Z,102739.52
2023-04-18T10:20:37.222Z,102736.18
2023-04-18T10:23:36.288Z,102732.31
2023-04-18T10:26:06.295Z,102729.87
2023-04-18T10:28:57.477Z,102733.05
2023-04-18T10:31:29.573Z,102732.55
2023-04-18T10:36:30.458Z,102726.38
2023-04-18T10:39:20.139Z,102726.55
2023-04-18T10:41:50.726Z,102719.86
2023-04-18T10:44:23.726Z,102715.83
2023-04-18T10:46:52.116Z,102718.83
2023-04-18T10:49:24.029Z,102716.19
2023-04-18T10:51:59.469Z,102715.84
2023-04-18T10:54:28.706Z,102716.36
2023-04-18T10:56:58.703Z,102715.32
2023-04-18T10:59:28.947Z,102720.95
2023-04-18T11:02:03.869Z,102720.26
2023-04-18T11:04:32.095Z,102717.09
2023-04-18T11:07:00.336Z,102721.67
2023-04-18T11:09:28.345Z,102722.02
2023-04-18T11:12:10.787Z,102722.73
2023-04-18T11:14:43.389Z,102719.90
2023-04-18T11:17:22.094Z,102717.07
2023-04-18T11:19:51.722Z,102715.83
2023-04-18T11:22:19.683Z,102722.32
2023-04-18T11:24:47.847Z,102722.59
2023-04-18T11:27:16.273Z,102718.88
2023-04-18T11:29:44.314Z,102716.77
2023-04-18T11:32:12.742Z,102719.38
2023-04-18T11:34:41.151Z,102714.42
2023-04-18T11:37:09.197Z,102718.75
2023-04-18T11:39:44.258Z,102718.86
2023-04-18T11:42:12.634Z,102720.41
2023-04-18T11:44:44.090Z,102718.43
2023-04-18T11:47:25.008Z,102712.80
2023-04-18T11:49:57.630Z,102712.25
2023-04-18T11:52:31.460Z,102709.92
2023-04-18T11:55:25.019Z,102706.89
2023-04-18T11:57:57.171Z,102713.83
2023-04-18T12:00:44.783Z,102706.74
2023-04-18T12:03:17.345Z,102703.71
2023-04-18T12:05:45.873Z,102712.98
2023-04-18T12:08:23.152Z,102710.17
2023-04-18T12:10:52.501Z,102715.25
2023-04-18T12:13:31.646Z,102713.30
2023-04-18T12:16:02.316Z,102703.29
2023-04-18T12:18:31.719Z,102711.40
2023-04-18T12:21:02.469Z,102707.52
2023-04-18T12:23:35.625Z,102705.20
2023-04-18T12:26:08.610Z,102708.04
2023-04-18T12:28:36.790Z,102708.20
2023-04-18T12:31:08.360Z,102709.25
2023-04-18T12:33:36.874Z,102703.27
2023-04-18T12:36:06.192Z,102704.15
2023-04-18T12:38:35.516Z,102699.96
2023-04-18T12:41:03.900Z,102701.30
2023-04-18T12:43:32.061Z,102704.25
2023-04-18T12:46:00.149Z,102701.04
2023-04-18T12:48:28.382Z,102697.36
2023-04-18T12:50:56.441Z,102699.81
2023-04-18T12:53:24.550Z,102693.15
2023-04-18T12:55:52.916Z,102695.41
2023-04-18T12:58:21.660Z,102682.88
2023-04-18T13:00:49.968Z,102686.92
2023-04-18T13:03:18.192Z,102682.38
2023-04-18T13:05:46.548Z,102684.48
2023-04-18T13:08:17.773Z,102680.58
2023-04-18T13:10:47.765Z,102673.05
2023-04-18T13:13:16.143Z,102670.11
2023-04-18T13:15:44.329Z,102673.71
2023-04-18T13:18:12.499Z,102669.73
2023-04-18T13:20:40.735Z,102668.91
2023-04-18T13:23:08.882Z,102667.75
2023-04-18T13:25:36.945Z,102669.94
2023-04-18T13:28:05.564Z,102670.52
2023-04-18T13:30:35.872Z,102669.97
2023-04-18T13:33:04.316Z,102667.77
2023-04-18T13:35:32.301Z,102657.55
2023-04-18T13:38:00.410Z,102659.47
2023-04-18T13:40:28.751Z,102661.55
2023-04-18T13:42:59.493Z,102661.88
2023-04-18T13:45:27.788Z,102662.70
2023-04-18T13:47:56.260Z,102666.31
2023-04-18T13:50:24.656Z,102667.16
2023-04-18T13:52:54.653Z,102669.02
2023-04-18T13:55:23.053Z,102671.89
2023-04-18T13:57:51.353Z,102665.63
2023-04-18T14:00:20.624Z,102672.05
2023-04-18T14:02:49.738Z,102667.23
2023-04-18T14:05:18.016Z,102666.06
2023-04-18T14:07:46.026Z,102667.39
2023-04-18T14:10:14.182Z,102665.59
2023-04-18T14:12:48.320Z,102664.11
2023-04-18T14:18:55.416Z,102669.14
2023-04-18T14:21:23.582Z,102671.90
2023-04-18T14:23:52.738Z,102675.52
2023-04-18T14:26:21.514Z,102672.31
2023-04-18T14:28:49.604Z,102676.67
2023-04-18T14:31:17.570Z,102668.66
2023-04-18T14:33:46.509Z,102671.86
2023-04-18T14:36:17.340Z,102665.92
2023-04-18T14:38:49.598Z,102665.93
2023-04-18T14:41:17.642Z,102658.77
2023-04-18T14:43:45.843Z,102655.96
2023-04-18T14:46:16.676Z,102655.27
2023-04-18T14:48:46.618Z,102657.39
2023-04-18T14:51:16.201Z,102653.39
2023-04-18T14:53:45.052Z,102655.39
2023-04-18T14:56:13.055Z,102654.23
2023-04-18T14:58:41.151Z,102653.23
2023-04-18T15:01:09.200Z,102652.20
2023-04-18T15:03:37.348Z,102647.52
2023-04-18T15:06:05.718Z,102652.80
2023-04-18T15:08:34.650Z,102648.38
2023-04-18T15:11:07.620Z,102650.11
2023-04-18T15:13:36.919Z,102646.45
2023-04-18T15:16:05.403Z,102649.95
2023-04-18T15:18:33.463Z,102649.92
2023-04-18T15:21:01.684Z,102650.27
2023-04-18T15:23:29.720Z,102650.46
2023-04-18T15:25:57.781Z,102650.30
2023-04-18T15:28:26.160Z,102648.17
2023-04-18T15:30:54.542Z,102654.29
2023-04-18T15:33:25.263Z,102649.55
2023-04-18T15:35:55.871Z,102654.30
2023-04-18T15:38:23.823Z,102653.98
2023-04-18T15:40:51.899Z,102657.56
2023-04-18T15:43:20.305Z,102655.33
2023-04-18T15:45:49.205Z,102655.99
2023-04-18T15:48:17.357Z,102653.50
2023-04-18T15:50:51.298Z,102652.21
2023-04-18T15:53:19.926Z,102655.29
2023-04-18T15:55:47.895Z,102660.61
2023-04-18T15:58:15.936Z,102661.52
2023-04-18T16:00:44.505Z,102663.06
2023-04-18T16:03:12.716Z,102664.33
2023-04-18T16:05:40.838Z,102664.44
2023-04-18T16:08:09.539Z,102671.42
2023-04-18T16:10:38.214Z,102672.73
2023-04-18T16:13:06.888Z,102672.85
2023-04-18T16:15:35.981Z,102669.81
2023-04-18T16:18:04.486Z,102665.19
2023-04-18T16:20:33.509Z,102669.73
2023-04-18T16:23:01.534Z,102669.40
2023-04-18T16:25:29.490Z,102663.04
2023-04-18T16:27:57.572Z,102662.99
2023-04-18T16:30:25.528Z,102657.39
2023-04-18T16:32:54.487Z,102654.42
2023-04-18T16:35:22.666Z,102657.39
2023-04-18T16:37:50.837Z,102656.10
2023-04-18T16:40:18.779Z,102658.51
2023-04-18T16:42:47.123Z,102660.16
2023-04-18T16:45:15.162Z,102659.81
2023-04-18T16:47:43.104Z,102662.40
2023-04-18T16:50:11.398Z,102656.78
2023-04-18T16:52:39.814Z,102655.55
2023-04-18T16:55:08.118Z,102653.77
2023-04-18T16:57:36.063Z,102652.65
2023-04-18T17:00:05.150Z,102658.52
2023-04-18T17:02:33.302Z,102657.98
2023-04-18T17:05:01.519Z,102659.88
2023-04-18T17:07:30.493Z,102660.09
2023-04-18T17:09:58.658Z,102663.94
2023-04-18T17:12:27.350Z,102663.88
2023-04-18T17:14:55.332Z,102669.24
2023-04-18T17:17:24.156Z,102664.54
2023-04-18T17:19:52.173Z,102662.27
2023-04-18T17:22:20.136Z,102660.44
2023-04-18T17:24:48.126Z,102660.55
2023-04-18T17:27:16.176Z,102665.40
2023-04-18T17:29:44.152Z,102666.13
2023-04-18T17:32:12.253Z,102665.23
2023-04-18T17:34:40.291Z,102668.82
2023-04-18T17:37:08.248Z,102671.04
2023-04-18T17:39:36.219Z,102665.65
2023-04-18T17:42:04.297Z,102667.94
2023-04-18T17:44:32.301Z,102667.39
2023-04-18T17:47:01.116Z,102673.98
2023-04-18T17:49:34.677Z,102674.58
2023-04-18T17:52:04.367Z,102673.27
2023-04-18T17:54:32.837Z,102672.19
2023-04-18T17:57:02.192Z,102672.82
2023-04-18T17:59:30.613Z,102673.44
2023-04-18T18:01:59.664Z,102675.92
2023-04-18T18:04:28.014Z,102680.98
2023-04-18T18:06:57.087Z,102683.53
2023-04-18T18:09:25.317Z,102680.74
2023-04-18T18:11:55.821Z,102682.04
2023-04-18T18:14:24.466Z,102682.83
2023-04-18T18:16:53.021Z,102686.93
2023-04-18T18:19:21.128Z,102687.52
2023-04-18T18:21:49.396Z,102686.19
2023-04-18T18:24:18.790Z,102682.09
2023-04-18T18:26:46.922Z,102684.03
2023-04-18T18:29:14.970Z,102683.50
2023-04-18T18:31:43.220Z,102681.09
2023-04-18T18:34:11.570Z,102679.30
2023-04-18T18:36:40.230Z,102683.91
2023-04-18T18:39:08.306Z,102679.19
2023-04-18T18:41:36.436Z,102684.23
2023-04-18T18:44:04.490Z,102681.66
2023-04-18T18:46:32.519Z,102682.96
2023-04-18T18:49:00.513Z,102684.65
2023-04-18T18:51:29.292Z,102681.12
2023-04-18T18:53:57.388Z,102676.54
2023-04-18T18:56:25.450Z,102678.56
2023-04-18T18:58:55.664Z,102675.97
2023-04-18T19:01:24.219Z,102676.02
2023-04-18T19:03:52.623Z,102671.38
2023-04-18T19:06:20.807Z,102672.34
2023-04-18T19:08:48.748Z,102670.45
2023-04-18T19:11:18.322Z,102665.91
2023-04-18T19:13:46.351Z,102660.55
2023-04-18T19:16:14.334Z,102663.12
2023-04-18T19:18:47.072Z,102657.94
2023-04-18T19:21:16.059Z,102651.75
2023-04-18T19:23:44.073Z,102652.86
2023-04-18T19:26:12.130Z,102643.69
2023-04-18T19:28:40.388Z,102645.44
2023-04-18T19:31:09.674Z,102640.80
2023-04-18T19:33:38.356Z,102641.66
2023-04-18T19:36:06.361Z,102637.40
2023-04-18T19:38:34.939Z,102635.86
2023-04-18T19:41:02.900Z,102638.98
2023-04-18T19:43:30.879Z,102633.52
2023-04-18T19:45:59.340Z,102631.13
2023-04-18T19:48:27.298Z,102626.73
2023-04-18T19:50:56.580Z,102632.28
2023-04-18T19:53:24.795Z,102628.13
2023-04-18T19:55:55.018Z,102628.74
2023-04-18T19:58:49.530Z,102622.75
2023-04-18T20:01:19.281Z,102619.79
2023-04-18T20:03:48.324Z,102616.35
2023-04-18T20:06:18.229Z,102620.07
2023-04-18T20:08:46.309Z,102617.56
2023-04-18T20:11:14.569Z,102613.11
2023-04-18T20:13:42.892Z,102611.84
2023-04-18T20:16:12.451Z,102609.15
2023-04-18T20:18:41.768Z,102605.61
2023-04-18T20:21:10.964Z,102604.20
2023-04-18T20:23:41.801Z,102599.16
2023-04-18T20:26:10.170Z,102601.06
2023-04-18T20:28:38.114Z,102594.05
2023-04-18T20:31:06.260Z,102593.52
2023-04-18T20:33:34.675Z,102590.89
2023-04-18T20:36:02.645Z,102584.55
2023-04-18T20:38:30.721Z,102582.02
2023-04-18T20:40:59.047Z,102576.88
2023-04-18T20:43:28.119Z,102573.85
2023-04-18T20:45:57.922Z,102571.67
2023-04-18T20:48:26.193Z,102570.05
2023-04-18T20:50:54.243Z,102568.70
2023-04-18T20:53:25.292Z,102566.77
2023-04-18T20:55:53.356Z,102564.02
2023-04-18T20:58:21.431Z,102565.80
2023-04-18T21:00:49.653Z,102565.14
2023-04-18T21:03:17.704Z,102555.38
2023-04-18T21:05:45.956Z,102551.17
2023-04-18T21:08:14.553Z,102547.08
2023-04-18T21:10:42.605Z,102541.27
2023-04-18T21:13:12.755Z,102533.48
2023-04-18T21:15:42.389Z,102530.89
2023-04-18T21:18:10.810Z,102525.33
2023-04-18T21:20:38.824Z,102518.86
2023-04-18T21:23:06.844Z,102519.73
2023-04-18T21:25:35.191Z,102517.48
2023-04-18T21:28:03.196Z,102511.62
2023-04-18T21:30:31.366Z,102502.93
2023-04-18T21:32:59.411Z,102498.62
2023-04-18T21:35:29.900Z,102495.31
2023-04-18T21:37:58.212Z,102490.11
2023-04-18T21:40:27.017Z,102496.09
2023-04-18T21:42:54.993Z,102498.11
2023-04-18T21:45:23.233Z,102496.96
2023-04-18T21:47:52.640Z,102492.70
2023-04-18T21:50:20.861Z,102486.91
2023-04-18T21:52:48.810Z,102478.81
2023-04-18T21:55:17.901Z,102468.96
2023-04-18T21:57:45.973Z,102466.11
2023-04-18T22:00:14.310Z,102464.42
2023-04-18T22:02:42.337Z,102460.08
2023-04-18T22:05:12.979Z,102448.85
2023-04-18T22:07:54.393Z,102446.86
2023-04-18T22:10:25.749Z,102439.38
2023-04-18T22:12:58.564Z,102444.17
2023-04-18T22:15:30.679Z,102443.23
2023-04-18T22:17:59.271Z,102440.27
2023-04-18T22:20:27.290Z,102436.98
2023-04-18T22:22:55.311Z,102441.51
2023-04-18T22:25:23.345Z,102443.48
2023-04-18T22:27:51.286Z,102441.12
2023-04-18T22:30:19.234Z,102431.11
2023-04-18T22:32:47.780Z,102423.67
2023-04-18T22:35:16.062Z,102420.40
2023-04-18T22:37:44.112Z,102422.99
2023-04-18T22:40:13.078Z,102421.73
2023-04-18T22:42:41.007Z,102411.86
2023-04-18T22:45:09.532Z,102402.77
2023-04-18T22:47:37.554Z,102399.58
2023-04-18T22:50:06.363Z,102402.67
2023-04-18T22:52:34.958Z,102407.00
2023-04-18T22:55:03.491Z,102413.76
2023-04-18T22:57:31.522Z,102415.20
2023-04-18T22:59:59.522Z,102407.00
2023-04-18T23:02:27.777Z,102404.00
2023-04-18T23:04:59.203Z,102392.73
2023-04-18T23:07:27.111Z,102397.61
2023-04-18T23:09:55.081Z,102394.34
2023-04-18T23:12:23.116Z,102395.31
2023-04-18T23:14:51.157Z,102391.50
2023-04-18T23:17:19.157Z,102383.77
2023-04-18T23:19:47.230Z,102386.67
2023-04-18T23:22:15.207Z,102384.02
2023-04-18T23:24:43.128Z,102375.76
2023-04-18T23:27:11.129Z,102373.18
2023-04-18T23:29:39.626Z,102378.38
2023-04-18T23:32:07.709Z,102376.95
2023-04-18T23:34:35.752Z,102387.01
2023-04-18T23:37:03.740Z,102382.67
2023-04-18T23:39:31.706Z,102382.13
2023-04-18T23:41:59.671Z,102380.61
2023-04-18T23:44:27.680Z,102382.55
2023-04-18T23:46:55.742Z,102379.48
2023-04-18T23:49:23.962Z,102376.11
2023-04-18T23:51:51.863Z,102367.77
2023-04-18T23:54:19.905Z,102362.62
2023-04-18T23:56:47.821Z,102370.58
2023-04-18T23:59:15.842Z,102368.14
